createdAt,value
2022-11-13T00:00:07.934Z,10.10
2022-11-13T00:02:34.086Z,10.16
2022-11-13T00:05:00.211Z,10.20
2022-11-13T00:07:26.346Z,10.08
2022-11-13T00:09:52.472Z,10.03
2022-11-13T00:12:18.579Z,9.97
2022-11-13T00:14:44.683Z,10.00
2022-11-13T00:17:10.769Z,10.06
2022-11-13T00:19:36.865Z,9.94
2022-11-13T00:22:02.992Z,10.04
2022-11-13T00:24:29.073Z,10.00
2022-11-13T00:26:55.163Z,10.08
2022-11-13T00:29:21.266Z,10.10
2022-11-13T00:31:47.361Z,10.08
2022-11-13T00:34:40.889Z,10.03
2022-11-13T00:36:59.556Z,9.98
2022-11-13T00:39:25.644Z,10.08
2022-11-13T00:41:51.735Z,10.05
2022-11-13T00:44:18.065Z,10.03
2022-11-13T00:46:44.163Z,9.98
2022-11-13T00:49:10.270Z,9.91
2022-11-13T00:51:36.848Z,10.05
2022-11-13T00:54:02.953Z,10.07
2022-11-13T00:56:29.052Z,10.10
2022-11-13T00:58:55.154Z,10.14
2022-11-13T01:01:21.313Z,10.14
2022-11-13T01:03:47.441Z,10.11
2022-11-13T01:06:13.558Z,10.11
2022-11-13T01:08:39.657Z,10.10
2022-11-13T01:11:05.753Z,10.07
2022-11-13T01:13:31.887Z,10.06
2022-11-13T01:15:57.987Z,10.02
2022-11-13T01:18:24.159Z,9.98
2022-11-13T01:20:50.303Z,9.96
2022-11-13T01:23:16.401Z,9.84
2022-11-13T01:25:42.499Z,9.84
2022-11-13T01:28:08.612Z,9.76
2022-11-13T01:30:34.704Z,9.72
2022-11-13T01:33:03.020Z,9.76
2022-11-13T01:35:29.146Z,9.82
2022-11-13T01:37:55.244Z,9.77
2022-11-13T01:40:21.345Z,9.72
2022-11-13T01:42:47.453Z,9.62
2022-11-13T01:45:13.545Z,9.65
2022-11-13T01:47:39.635Z,9.54
2022-11-13T01:50:05.798Z,9.41
2022-11-13T01:52:31.884Z,9.46
2022-11-13T01:54:57.982Z,9.53
2022-11-13T01:57:24.079Z,9.52
2022-11-13T01:59:50.173Z,9.47
2022-11-13T02:02:16.263Z,9.45
2022-11-13T02:04:42.360Z,9.42
2022-11-13T02:07:08.488Z,9.31
2022-11-13T02:09:34.668Z,9.25
2022-11-13T02:12:00.825Z,9.24
2022-11-13T02:14:26.927Z,9.26
2022-11-13T02:16:53.024Z,9.29
2022-11-13T02:19:19.145Z,9.31
2022-11-13T02:21:45.228Z,9.29
2022-11-13T02:24:11.329Z,9.33
2022-11-13T02:26:37.443Z,9.40
2022-11-13T02:29:03.553Z,9.33
2022-11-13T02:31:29.637Z,9.35
2022-11-13T02:33:55.760Z,9.26
2022-11-13T02:36:21.848Z,9.14
2022-11-13T02:38:47.949Z,9.06
2022-11-13T02:41:14.056Z,9.16
2022-11-13T02:43:40.145Z,9.17
2022-11-13T02:46:06.253Z,9.09
2022-11-13T02:48:32.361Z,9.09
2022-11-13T02:50:58.450Z,8.95
2022-11-13T02:53:24.556Z,8.89
2022-11-13T02:55:50.712Z,9.11
2022-11-13T02:58:16.811Z,9.31
2022-11-13T03:00:42.906Z,9.25
2022-11-13T03:03:09.022Z,9.34
2022-11-13T03:05:35.116Z,9.26
2022-11-13T03:08:01.199Z,9.21
2022-11-13T03:10:27.392Z,9.33
2022-11-13T03:12:53.521Z,9.41
2022-11-13T03:15:19.700Z,9.45
2022-11-13T03:17:45.812Z,9.37
2022-11-13T03:20:11.921Z,9.20
2022-11-13T03:22:38.015Z,9.18
2022-11-13T03:25:09.934Z,9.14
2022-11-13T03:27:36.707Z,9.11
2022-11-13T03:30:02.801Z,9.10
2022-11-13T03:32:28.903Z,9.02
2022-11-13T03:34:55.012Z,9.16
2022-11-13T03:37:21.105Z,9.20
2022-11-13T03:39:47.212Z,9.26
2022-11-13T03:42:13.302Z,9.17
2022-11-13T03:44:39.397Z,9.18
2022-11-13T03:47:05.507Z,9.18
2022-11-13T03:49:31.583Z,9.15
2022-11-13T03:51:57.668Z,9.21
2022-11-13T03:54:24.544Z,9.23
2022-11-13T03:56:50.636Z,9.50
2022-11-13T03:59:16.753Z,9.70
2022-11-13T04:01:42.946Z,9.48
2022-11-13T04:04:09.076Z,9.35
2022-11-13T04:06:35.188Z,9.30
2022-11-13T04:09:01.300Z,9.43
2022-11-13T04:11:27.394Z,9.46
2022-11-13T04:13:53.629Z,9.32
2022-11-13T04:16:19.788Z,9.14
2022-11-13T04:18:45.890Z,8.89
2022-11-13T04:21:11.999Z,8.66
2022-11-13T04:23:38.101Z,8.69
2022-11-13T04:26:04.194Z,8.86
2022-11-13T04:28:30.668Z,9.06
2022-11-13T04:30:56.985Z,9.14
2022-11-13T04:33:23.096Z,9.18
2022-11-13T04:35:49.214Z,9.33
2022-11-13T04:38:15.334Z,9.16
2022-11-13T04:40:41.435Z,8.96
2022-11-13T04:43:07.519Z,8.86
2022-11-13T04:45:33.650Z,8.81
2022-11-13T04:47:59.741Z,8.93
2022-11-13T04:50:25.834Z,9.10
2022-11-13T04:52:51.951Z,9.13
2022-11-13T04:55:18.036Z,9.17
2022-11-13T04:57:44.141Z,9.24
2022-11-13T05:00:10.264Z,9.12
2022-11-13T05:02:36.346Z,9.18
2022-11-13T05:05:05.274Z,9.03
2022-11-13T05:07:31.668Z,8.88
2022-11-13T05:09:57.760Z,9.07
2022-11-13T05:12:23.846Z,9.08
2022-11-13T05:14:49.961Z,9.04
2022-11-13T05:17:16.043Z,9.09
2022-11-13T05:19:42.127Z,9.21
2022-11-13T05:22:08.233Z,9.27
2022-11-13T05:24:34.335Z,9.13
2022-11-13T05:27:00.459Z,9.17
2022-11-13T05:29:26.576Z,9.17
2022-11-13T05:31:52.674Z,8.78
2022-11-13T05:34:18.771Z,8.47
2022-11-13T05:36:44.892Z,8.33
2022-11-13T05:39:10.994Z,8.39
2022-11-13T05:41:37.093Z,8.41
2022-11-13T05:44:03.201Z,8.32
2022-11-13T05:46:29.306Z,8.28
2022-11-13T05:48:55.395Z,8.29
2022-11-13T05:51:21.492Z,8.08
2022-11-13T05:53:47.593Z,8.02
2022-11-13T05:56:13.675Z,7.82
2022-11-13T05:58:40.120Z,7.83
2022-11-13T06:01:06.213Z,7.63
2022-11-13T06:03:32.324Z,7.66
2022-11-13T06:05:58.921Z,7.66
2022-11-13T06:08:25.132Z,7.47
2022-11-13T06:10:51.253Z,7.37
2022-11-13T06:13:17.391Z,7.13
2022-11-13T06:15:43.471Z,7.21
2022-11-13T06:18:09.579Z,7.30
2022-11-13T06:20:35.722Z,7.07
2022-11-13T06:23:01.818Z,7.16
2022-11-13T06:25:27.928Z,7.35
2022-11-13T06:27:54.042Z,7.36
2022-11-13T06:30:20.138Z,7.15
2022-11-13T06:32:46.224Z,7.22
2022-11-13T06:35:12.344Z,7.29
2022-11-13T06:37:38.432Z,7.23
2022-11-13T06:40:04.519Z,7.16
2022-11-13T06:42:30.632Z,6.83
2022-11-13T06:44:56.735Z,6.83
2022-11-13T06:47:22.823Z,6.96
2022-11-13T06:49:48.919Z,6.74
2022-11-13T06:52:15.021Z,6.85
2022-11-13T06:54:41.105Z,6.81
2022-11-13T06:57:07.253Z,6.87
2022-11-13T06:59:33.353Z,7.03
2022-11-13T07:01:59.458Z,7.14
2022-11-13T07:04:25.654Z,7.06
2022-11-13T07:06:51.836Z,7.25
2022-11-13T07:09:17.959Z,7.19
2022-11-13T07:11:44.135Z,7.15
2022-11-13T07:14:10.231Z,7.08
2022-11-13T07:17:04.172Z,7.03
2022-11-13T07:19:22.419Z,6.95
2022-11-13T07:21:48.498Z,7.10
2022-11-13T07:24:17.059Z,6.95
2022-11-13T07:26:43.411Z,6.99
2022-11-13T07:29:09.509Z,7.03
2022-11-13T07:31:35.608Z,7.20
2022-11-13T07:34:01.730Z,7.32
2022-11-13T07:36:27.824Z,7.28
2022-11-13T07:38:59.193Z,7.25
2022-11-13T07:41:26.288Z,7.23
2022-11-13T07:43:52.373Z,7.17
2022-11-13T07:46:18.465Z,7.21
2022-11-13T07:48:44.577Z,7.17
2022-11-13T07:51:10.681Z,7.18
2022-11-13T07:53:36.786Z,7.16
2022-11-13T07:56:02.929Z,7.10
2022-11-13T07:58:29.394Z,7.15
2022-11-13T08:00:55.736Z,7.16
2022-11-13T08:03:21.874Z,7.25
2022-11-13T08:05:47.966Z,7.38
2022-11-13T08:08:14.059Z,7.44
2022-11-13T08:10:40.177Z,7.49
2022-11-13T08:13:06.268Z,7.47
2022-11-13T08:15:32.365Z,7.56
2022-11-13T08:17:58.473Z,7.70
2022-11-13T08:20:24.584Z,7.87
2022-11-13T08:22:50.694Z,7.79
2022-11-13T08:25:16.808Z,7.75
2022-11-13T08:27:42.903Z,7.81
2022-11-13T08:30:08.991Z,8.02
2022-11-13T08:32:35.132Z,8.18
2022-11-13T08:35:01.230Z,8.20
2022-11-13T08:37:27.336Z,8.31
2022-11-13T08:39:53.473Z,8.31
2022-11-13T08:42:19.569Z,8.25
2022-11-13T08:44:45.662Z,8.31
2022-11-13T08:47:11.766Z,8.38
2022-11-13T08:49:37.864Z,8.37
2022-11-13T08:52:03.982Z,8.50
2022-11-13T08:54:30.100Z,8.59
2022-11-13T08:56:59.652Z,8.61
2022-11-13T08:59:28.159Z,8.78
2022-11-13T09:01:54.256Z,8.86
2022-11-13T09:04:20.348Z,9.01
2022-11-13T09:06:46.548Z,9.09
2022-11-13T09:09:12.720Z,9.22
2022-11-13T09:11:38.821Z,9.35
2022-11-13T09:14:04.911Z,9.45
2022-11-13T09:16:31.502Z,9.66
2022-11-13T09:18:57.600Z,9.83
2022-11-13T09:21:23.717Z,9.92
2022-11-13T09:23:49.842Z,10.02
2022-11-13T09:26:15.945Z,10.16
2022-11-13T09:28:42.036Z,10.20
2022-11-13T09:31:08.167Z,10.34
2022-11-13T09:33:34.286Z,10.43
2022-11-13T09:36:00.385Z,10.57
2022-11-13T09:38:26.640Z,10.65
2022-11-13T09:40:52.925Z,10.74
2022-11-13T09:43:19.024Z,10.90
2022-11-13T09:45:45.141Z,11.00
2022-11-13T09:48:11.236Z,11.17
2022-11-13T09:50:37.489Z,11.22
2022-11-13T09:53:03.632Z,11.33
2022-11-13T09:55:29.711Z,11.43
2022-11-13T09:57:55.821Z,11.41
2022-11-13T10:00:22.080Z,11.61
2022-11-13T10:02:48.196Z,11.61
2022-11-13T10:05:14.290Z,11.67
2022-11-13T10:07:40.741Z,11.70
2022-11-13T10:10:06.834Z,11.75
2022-11-13T10:12:32.929Z,11.86
2022-11-13T10:14:59.028Z,11.93
2022-11-13T10:17:25.108Z,11.98
2022-11-13T10:19:51.196Z,12.02
2022-11-13T10:22:34.376Z,12.09
2022-11-13T10:25:00.891Z,12.14
2022-11-13T10:27:27.049Z,12.22
2022-11-13T10:29:53.174Z,12.32
2022-11-13T10:32:19.305Z,12.35
2022-11-13T10:34:45.408Z,12.44
2022-11-13T10:37:11.494Z,12.49
2022-11-13T10:39:37.573Z,12.57
2022-11-13T10:42:03.682Z,12.59
2022-11-13T10:44:29.787Z,12.66
2022-11-13T10:46:55.879Z,12.72
2022-11-13T10:49:21.980Z,12.79
2022-11-13T10:51:48.072Z,12.87
2022-11-13T10:54:14.169Z,12.95
2022-11-13T10:56:40.271Z,13.02
2022-11-13T10:59:06.360Z,13.08
2022-11-13T11:01:32.506Z,13.12
2022-11-13T11:03:58.650Z,13.16
2022-11-13T11:06:41.959Z,13.27
2022-11-13T11:09:11.402Z,13.31
2022-11-13T11:11:37.502Z,13.37
2022-11-13T11:14:03.654Z,13.46
2022-11-13T11:16:29.866Z,13.55
2022-11-13T11:18:55.985Z,13.56
2022-11-13T11:21:22.081Z,13.63
2022-11-13T11:23:51.824Z,13.73
2022-11-13T11:26:21.813Z,13.76
2022-11-13T11:28:47.934Z,13.85
2022-11-13T11:31:14.048Z,13.90
2022-11-13T11:33:40.151Z,13.94
2022-11-13T11:36:06.252Z,14.04
2022-11-13T11:38:32.546Z,14.07
2022-11-13T11:40:58.686Z,14.17
2022-11-13T11:43:24.771Z,14.22
2022-11-13T11:45:50.893Z,14.28
2022-11-13T11:48:16.994Z,14.34
2022-11-13T11:50:43.097Z,14.39
2022-11-13T11:53:09.207Z,14.38
2022-11-13T11:55:35.306Z,14.47
2022-11-13T11:58:01.392Z,14.52
2022-11-13T12:00:27.593Z,14.63
2022-11-13T12:02:53.719Z,14.64
2022-11-13T12:05:20.403Z,14.75
2022-11-13T12:07:46.667Z,14.78
2022-11-13T12:10:12.765Z,14.80
2022-11-13T12:12:38.861Z,14.84
2022-11-13T12:15:05.002Z,14.84
2022-11-13T12:17:31.100Z,14.88
2022-11-13T12:19:57.189Z,14.98
2022-11-13T12:22:25.864Z,15.02
2022-11-13T12:24:55.835Z,15.10
2022-11-13T12:27:21.943Z,15.11
2022-11-13T12:29:48.055Z,15.04
2022-11-13T12:32:14.166Z,15.10
2022-11-13T12:34:40.352Z,15.11
2022-11-13T12:37:06.517Z,15.09
2022-11-13T12:39:32.638Z,15.09
2022-11-13T12:41:58.759Z,15.11
2022-11-13T12:44:24.856Z,15.18
2022-11-13T12:46:51.006Z,15.18
2022-11-13T12:49:17.108Z,15.17
2022-11-13T12:51:43.233Z,15.17
2022-11-13T12:54:09.335Z,15.20
2022-11-13T12:56:35.433Z,15.19
2022-11-13T12:59:29.148Z,15.21
2022-11-13T13:01:50.619Z,15.21
2022-11-13T13:04:16.792Z,15.25
2022-11-13T13:06:42.979Z,15.31
2022-11-13T13:09:09.114Z,15.28
2022-11-13T13:11:35.251Z,15.29
2022-11-13T13:14:01.352Z,15.28
2022-11-13T13:16:27.453Z,15.32
2022-11-13T13:18:53.568Z,15.33
2022-11-13T13:21:19.671Z,15.35
2022-11-13T13:23:45.817Z,15.36
2022-11-13T13:26:12.407Z,15.34
2022-11-13T13:28:38.494Z,15.38
2022-11-13T13:31:04.651Z,15.39
2022-11-13T13:33:30.761Z,15.39
2022-11-13T13:35:56.854Z,15.49
2022-11-13T13:38:22.939Z,15.53
2022-11-13T13:40:49.036Z,15.49
2022-11-13T13:43:15.138Z,15.44
2022-11-13T13:45:41.236Z,15.38
2022-11-13T13:48:07.349Z,15.33
2022-11-13T13:50:33.448Z,15.32
2022-11-13T13:52:59.543Z,15.31
2022-11-13T13:55:25.653Z,15.33
2022-11-13T13:57:51.753Z,15.27
2022-11-13T14:00:17.863Z,15.26
2022-11-13T14:02:43.985Z,15.22
2022-11-13T14:05:10.099Z,15.21
2022-11-13T14:07:36.201Z,15.19
2022-11-13T14:10:02.308Z,15.17
2022-11-13T14:12:28.392Z,15.11
2022-11-13T14:14:54.484Z,15.11
2022-11-13T14:17:21.565Z,15.07
2022-11-13T14:19:47.661Z,15.04
2022-11-13T14:22:13.759Z,14.98
2022-11-13T14:24:39.889Z,14.97
2022-11-13T14:27:06.056Z,14.96
2022-11-13T14:29:32.143Z,14.95
2022-11-13T14:31:58.731Z,14.89
2022-11-13T14:34:24.817Z,14.81
2022-11-13T14:36:50.910Z,14.80
2022-11-13T14:39:17.026Z,14.79
2022-11-13T14:41:43.135Z,14.78
2022-11-13T14:44:09.232Z,14.77
2022-11-13T14:46:35.332Z,14.77
2022-11-13T14:49:01.421Z,14.69
2022-11-13T14:51:27.511Z,14.62
2022-11-13T14:53:53.854Z,14.62
2022-11-13T14:56:19.950Z,14.63
2022-11-13T14:58:46.082Z,14.53
2022-11-13T15:01:12.199Z,14.55
2022-11-13T15:03:38.501Z,14.56
2022-11-13T15:06:04.628Z,14.64
2022-11-13T15:08:30.761Z,14.66
2022-11-13T15:10:56.873Z,14.69
2022-11-13T15:13:22.970Z,14.64
2022-11-13T15:15:49.094Z,14.73
2022-11-13T15:18:15.175Z,14.73
2022-11-13T15:20:41.307Z,14.73
2022-11-13T15:23:08.240Z,14.74
2022-11-13T15:25:34.330Z,14.65
2022-11-13T15:28:00.415Z,14.64
2022-11-13T15:30:26.561Z,14.58
2022-11-13T15:32:52.652Z,14.51
2022-11-13T15:35:18.745Z,14.34
2022-11-13T15:37:44.869Z,14.07
2022-11-13T15:40:10.973Z,14.00
2022-11-13T15:42:37.074Z,13.95
2022-11-13T15:45:03.199Z,13.84
2022-11-13T15:47:29.304Z,13.70
2022-11-13T15:50:13.988Z,13.64
2022-11-13T15:52:40.807Z,13.48
2022-11-13T15:55:06.898Z,13.38
2022-11-13T15:57:32.998Z,13.22
2022-11-13T15:59:59.135Z,13.07
2022-11-13T16:02:25.261Z,13.03
2022-11-13T16:04:56.477Z,12.92
2022-11-13T16:07:23.224Z,12.96
2022-11-13T16:09:49.383Z,12.92
2022-11-13T16:12:15.485Z,12.89
2022-11-13T16:14:41.599Z,12.86
2022-11-13T16:17:07.823Z,12.67
2022-11-13T16:19:33.917Z,12.61
2022-11-13T16:22:00.015Z,12.58
2022-11-13T16:24:26.114Z,12.56
2022-11-13T16:26:52.213Z,12.49
2022-11-13T16:29:18.334Z,12.33
2022-11-13T16:31:44.445Z,12.29
2022-11-13T16:34:10.541Z,12.39
2022-11-13T16:36:37.001Z,12.21
2022-11-13T16:39:03.099Z,12.22
2022-11-13T16:41:29.198Z,12.17
2022-11-13T16:43:55.321Z,12.10
2022-11-13T16:46:21.422Z,11.99
2022-11-13T16:48:47.519Z,12.09
2022-11-13T16:51:13.631Z,12.16
2022-11-13T16:53:39.727Z,12.10
2022-11-13T16:56:05.821Z,12.06
2022-11-13T16:58:31.939Z,11.98
2022-11-13T17:01:00.230Z,12.01
2022-11-13T17:03:26.833Z,11.77
2022-11-13T17:05:53.201Z,11.69
2022-11-13T17:08:19.317Z,11.72
2022-11-13T17:10:45.399Z,11.69
2022-11-13T17:13:11.505Z,11.70
2022-11-13T17:15:37.601Z,11.73
2022-11-13T17:18:03.698Z,11.50
2022-11-13T17:20:29.827Z,11.68
2022-11-13T17:22:55.925Z,11.75
2022-11-13T17:25:22.012Z,11.67
2022-11-13T17:27:48.124Z,11.50
2022-11-13T17:30:14.229Z,11.46
2022-11-13T17:32:40.333Z,11.37
2022-11-13T17:35:06.462Z,11.34
2022-11-13T17:37:32.546Z,11.25
2022-11-13T17:39:58.688Z,11.17
2022-11-13T17:42:25.096Z,11.12
2022-11-13T17:44:51.197Z,11.22
2022-11-13T17:47:17.298Z,11.16
2022-11-13T17:49:43.421Z,11.15
2022-11-13T17:52:09.523Z,11.12
2022-11-13T17:54:35.631Z,11.17
2022-11-13T17:57:01.733Z,11.00
2022-11-13T17:59:27.843Z,10.75
2022-11-13T18:01:54.035Z,10.90
2022-11-13T18:04:20.172Z,10.95
2022-11-13T18:06:46.320Z,10.92
2022-11-13T18:09:12.460Z,10.88
2022-11-13T18:11:38.574Z,10.84
2022-11-13T18:14:04.669Z,10.74
2022-11-13T18:16:30.780Z,10.71
2022-11-13T18:18:56.895Z,10.75
2022-11-13T18:21:23.555Z,10.69
2022-11-13T18:23:50.004Z,10.70
2022-11-13T18:26:16.184Z,10.65
2022-11-13T18:28:42.263Z,10.81
2022-11-13T18:31:08.357Z,10.95
2022-11-13T18:33:34.467Z,10.72
2022-11-13T18:36:00.566Z,10.51
2022-11-13T18:38:26.674Z,10.31
2022-11-13T18:40:52.773Z,10.40
2022-11-13T18:43:18.875Z,10.60
2022-11-13T18:45:44.955Z,10.79
2022-11-13T18:48:11.066Z,10.83
2022-11-13T18:50:37.174Z,10.84
2022-11-13T18:53:03.264Z,10.81
2022-11-13T18:55:29.358Z,10.79
2022-11-13T18:57:55.463Z,10.72
2022-11-13T19:00:21.554Z,10.62
2022-11-13T19:02:47.655Z,10.44
2022-11-13T19:05:13.761Z,10.39
2022-11-13T19:07:39.855Z,10.03
2022-11-13T19:10:05.962Z,9.93
2022-11-13T19:12:32.051Z,9.95
2022-11-13T19:14:58.137Z,9.81
2022-11-13T19:17:24.251Z,9.72
2022-11-13T19:19:50.336Z,9.91
2022-11-13T19:22:16.415Z,9.93
2022-11-13T19:24:42.534Z,10.11
2022-11-13T19:27:08.617Z,10.27
2022-11-13T19:29:34.695Z,10.09
2022-11-13T19:32:00.805Z,9.86
2022-11-13T19:34:26.913Z,9.92
2022-11-13T19:36:53.010Z,9.87
2022-11-13T19:39:19.113Z,9.85
2022-11-13T19:41:45.214Z,9.77
2022-11-13T19:44:11.304Z,9.96
2022-11-13T19:46:37.769Z,10.02
2022-11-13T19:49:03.857Z,10.22
2022-11-13T19:51:29.953Z,10.15
2022-11-13T19:53:56.064Z,10.05
2022-11-13T19:56:22.177Z,9.96
2022-11-13T19:58:48.273Z,9.82
2022-11-13T20:01:14.468Z,9.92
2022-11-13T20:03:40.665Z,9.92
2022-11-13T20:06:06.748Z,10.20
2022-11-13T20:08:33.207Z,10.19
2022-11-13T20:10:59.460Z,10.13
2022-11-13T20:13:25.551Z,10.14
2022-11-13T20:15:51.667Z,10.01
2022-11-13T20:18:17.752Z,9.90
2022-11-13T20:20:43.844Z,9.74
2022-11-13T20:23:09.959Z,9.56
2022-11-13T20:25:36.047Z,9.39
2022-11-13T20:28:02.142Z,9.41
2022-11-13T20:30:29.054Z,9.47
2022-11-13T20:32:55.153Z,9.52
2022-11-13T20:35:21.257Z,9.59
2022-11-13T20:37:47.363Z,9.54
2022-11-13T20:40:13.464Z,9.50
2022-11-13T20:42:39.562Z,9.33
2022-11-13T20:45:05.664Z,9.31
2022-11-13T20:47:31.760Z,9.30
2022-11-13T20:49:57.844Z,9.32
2022-11-13T20:52:23.984Z,9.37
2022-11-13T20:54:50.097Z,9.27
2022-11-13T20:57:16.189Z,9.29
2022-11-13T20:59:42.321Z,9.21
2022-11-13T21:02:08.469Z,9.30
2022-11-13T21:04:34.588Z,9.20
2022-11-13T21:07:00.746Z,9.03
2022-11-13T21:09:26.981Z,9.00
2022-11-13T21:11:53.077Z,9.02
2022-11-13T21:14:19.190Z,8.90
2022-11-13T21:16:45.279Z,8.92
2022-11-13T21:19:11.374Z,8.85
2022-11-13T21:21:37.492Z,8.96
2022-11-13T21:24:03.585Z,8.96
2022-11-13T21:26:29.685Z,8.78
2022-11-13T21:28:55.787Z,8.78
2022-11-13T21:31:21.885Z,8.72
2022-11-13T21:33:47.980Z,8.82
2022-11-13T21:36:14.108Z,8.84
2022-11-13T21:38:40.203Z,8.96
2022-11-13T21:41:06.290Z,9.08
2022-11-13T21:43:32.412Z,9.13
2022-11-13T21:45:58.546Z,9.24
2022-11-13T21:48:27.053Z,9.14
2022-11-13T21:50:55.349Z,8.99
2022-11-13T21:53:21.453Z,8.74
2022-11-13T21:55:47.544Z,8.63
2022-11-13T21:58:13.656Z,8.51
2022-11-13T22:00:39.744Z,8.42
2022-11-13T22:03:05.861Z,8.30
2022-11-13T22:05:31.963Z,8.20
2022-11-13T22:07:58.053Z,8.29
2022-11-13T22:10:24.156Z,8.39
2022-11-13T22:12:50.273Z,8.39
2022-11-13T22:15:16.375Z,8.39
2022-11-13T22:17:42.473Z,8.36
2022-11-13T22:20:08.615Z,8.21
2022-11-13T22:22:34.730Z,8.07
2022-11-13T22:25:00.824Z,8.10
2022-11-13T22:27:26.934Z,7.92
2022-11-13T22:29:53.028Z,7.86
2022-11-13T22:32:19.128Z,7.92
2022-11-13T22:34:45.835Z,8.35
2022-11-13T22:37:11.929Z,8.70
2022-11-13T22:39:38.037Z,8.93
2022-11-13T22:42:04.155Z,9.05
2022-11-13T22:44:51.330Z,9.12
2022-11-13T22:47:16.363Z,9.19
2022-11-13T22:49:42.453Z,9.18
2022-11-13T22:52:08.546Z,9.24
2022-11-13T22:54:34.660Z,9.29
2022-11-13T22:57:00.757Z,9.31
2022-11-13T22:59:26.903Z,9.41
2022-11-13T23:01:55.682Z,9.39
2022-11-13T23:04:21.992Z,9.38
2022-11-13T23:06:48.134Z,9.37
2022-11-13T23:09:14.281Z,9.44
2022-11-13T23:11:40.685Z,9.42
2022-11-13T23:14:09.128Z,9.40
2022-11-13T23:16:36.140Z,9.32
2022-11-13T23:19:02.242Z,9.42
2022-11-13T23:21:28.349Z,9.49
2022-11-13T23:23:54.486Z,9.50
2022-11-13T23:26:20.581Z,9.53
2022-11-13T23:28:46.676Z,9.55
2022-11-13T23:31:12.789Z,9.54
2022-11-13T23:33:38.881Z,9.56
2022-11-13T23:36:04.990Z,9.66
2022-11-13T23:38:31.524Z,9.58
2022-11-13T23:40:57.860Z,9.63
2022-11-13T23:43:36.437Z,9.64
2022-11-13T23:46:10.032Z,9.71
2022-11-13T23:48:36.133Z,9.64
2022-11-13T23:51:02.244Z,9.58
2022-11-13T23:53:28.345Z,9.56
2022-11-13T23:55:54.433Z,9.60
2022-11-13T23:58:20.515Z,9.63
